createdAt,value
2023-04-16T00:00:03.193Z,83.76
2023-04-16T00:01:03.046Z,83.65
2023-04-16T00:02:03.073Z,83.65
2023-04-16T00:03:03.208Z,83.55
2023-04-16T00:04:10.644Z,83.76
2023-04-16T00:05:03.216Z,83.96
2023-04-16T00:06:02.981Z,83.96
2023-04-16T00:07:02.974Z,84.17
2023-04-16T00:08:03.000Z,84.47
2023-04-16T00:09:02.940Z,84.47
2023-04-16T00:10:02.975Z,84.27
2023-04-16T00:11:02.931Z,84.17
2023-04-16T00:12:03.013Z,84.06
2023-04-16T00:13:02.999Z,84.06
2023-04-16T00:14:02.890Z,84.06
2023-04-16T00:15:02.879Z,84.06
2023-04-16T00:16:02.850Z,84.27
2023-04-16T00:17:02.876Z,84.47
2023-04-16T00:18:02.837Z,84.37
2023-04-16T00:19:02.805Z,84.20
2023-04-16T00:20:02.814Z,84.06
2023-04-16T00:21:02.793Z,84.10
2023-04-16T00:22:02.777Z,84.31
2023-04-16T00:23:02.766Z,84.20
2023-04-16T00:24:02.755Z,84.31
2023-04-16T00:25:02.747Z,84.20
2023-04-16T00:26:02.729Z,84.41
2023-04-16T00:27:02.712Z,84.52
2023-04-16T00:28:02.713Z,84.41
2023-04-16T00:29:02.715Z,84.72
2023-04-16T00:30:02.700Z,84.61
2023-04-16T00:31:02.719Z,84.41
2023-04-16T00:32:02.643Z,84.41
2023-04-16T00:33:02.666Z,84.41
2023-04-16T00:34:02.619Z,84.72
2023-04-16T00:35:02.635Z,84.61
2023-04-16T00:36:02.635Z,84.52
2023-04-16T00:37:02.588Z,84.31
2023-04-16T00:38:02.607Z,84.31
2023-04-16T00:39:02.574Z,84.52
2023-04-16T00:40:02.566Z,84.72
2023-04-16T00:41:02.613Z,84.92
2023-04-16T00:42:02.625Z,84.82
2023-04-16T00:43:02.552Z,85.03
2023-04-16T00:44:02.562Z,85.03
2023-04-16T00:45:02.476Z,84.82
2023-04-16T00:46:02.519Z,84.72
2023-04-16T00:47:02.435Z,84.61
2023-04-16T00:48:02.446Z,84.72
2023-04-16T00:49:02.420Z,84.72
2023-04-16T00:50:02.435Z,84.61
2023-04-16T00:51:02.401Z,84.86
2023-04-16T00:52:02.423Z,84.86
2023-04-16T00:53:02.356Z,84.76
2023-04-16T00:54:02.346Z,84.76
2023-04-16T00:55:02.370Z,84.66
2023-04-16T00:56:02.325Z,84.55
2023-04-16T00:57:02.347Z,84.45
2023-04-16T00:58:02.316Z,84.55
2023-04-16T00:59:02.300Z,84.45
2023-04-16T01:00:02.282Z,84.34
2023-04-16T01:01:02.267Z,84.34
2023-04-16T01:02:02.313Z,84.45
2023-04-16T01:03:02.498Z,84.34
2023-04-16T01:04:02.442Z,84.34
2023-04-16T01:05:02.220Z,84.45
2023-04-16T01:06:02.201Z,84.45
2023-04-16T01:07:02.187Z,84.34
2023-04-16T01:08:02.221Z,84.34
2023-04-16T01:09:02.147Z,84.45
2023-04-16T01:10:02.161Z,84.34
2023-04-16T01:11:02.130Z,84.34
2023-04-16T01:12:02.145Z,84.34
2023-04-16T01:13:02.128Z,84.34
2023-04-16T01:14:02.089Z,84.25
2023-04-16T01:15:02.151Z,84.34
2023-04-16T01:16:02.100Z,84.25
2023-04-16T01:17:02.047Z,84.45
2023-04-16T01:18:02.079Z,84.55
2023-04-16T01:19:02.014Z,84.45
2023-04-16T01:20:02.023Z,84.45
2023-04-16T01:21:01.982Z,84.39
2023-04-16T01:22:01.987Z,84.45
2023-04-16T01:23:02.021Z,84.59
2023-04-16T01:24:01.942Z,84.49
2023-04-16T01:25:01.958Z,84.49
2023-04-16T01:26:01.958Z,84.59
2023-04-16T01:27:01.913Z,84.69
2023-04-16T01:28:01.900Z,84.69
2023-04-16T01:29:01.961Z,85.00
2023-04-16T01:30:01.894Z,85.11
2023-04-16T01:31:01.915Z,85.11
2023-04-16T01:32:01.847Z,85.11
2023-04-16T01:33:01.903Z,85.11
2023-04-16T01:34:01.820Z,85.11
2023-04-16T01:35:01.835Z,85.00
2023-04-16T01:36:01.792Z,84.90
2023-04-16T01:37:01.795Z,84.90
2023-04-16T01:38:01.785Z,84.90
2023-04-16T01:39:01.756Z,84.80
2023-04-16T01:40:01.754Z,84.80
2023-04-16T01:41:01.733Z,84.69
2023-04-16T01:42:01.723Z,84.90
2023-04-16T01:43:01.705Z,84.90
2023-04-16T01:44:01.703Z,84.80
2023-04-16T01:45:01.685Z,84.90
2023-04-16T01:46:01.678Z,84.90
2023-04-16T01:47:01.715Z,84.90
2023-04-16T01:48:01.839Z,84.69
2023-04-16T01:49:01.627Z,84.74
2023-04-16T01:50:01.649Z,84.69
2023-04-16T01:51:01.610Z,84.84
2023-04-16T01:52:01.592Z,84.84
2023-04-16T01:53:01.612Z,84.74
2023-04-16T01:54:01.556Z,84.74
2023-04-16T01:55:01.616Z,84.84
2023-04-16T01:56:01.561Z,84.74
2023-04-16T01:57:01.550Z,84.74
2023-04-16T01:58:01.510Z,84.74
2023-04-16T01:59:01.511Z,84.74
2023-04-16T02:00:01.486Z,84.84
2023-04-16T02:01:01.552Z,84.94
2023-04-16T02:02:01.602Z,84.84
2023-04-16T02:03:01.726Z,84.74
2023-04-16T02:04:01.697Z,84.63
2023-04-16T02:05:01.433Z,84.63
2023-04-16T02:06:01.400Z,84.53
2023-04-16T02:07:01.399Z,84.53
2023-04-16T02:08:01.385Z,84.42
2023-04-16T02:09:01.371Z,84.42
2023-04-16T02:10:01.379Z,84.53
2023-04-16T02:11:01.352Z,84.53
2023-04-16T02:12:01.340Z,84.53
2023-04-16T02:13:01.321Z,84.53
2023-04-16T02:14:01.300Z,84.53
2023-04-16T02:15:01.304Z,84.63
2023-04-16T02:16:01.327Z,84.74
2023-04-16T02:17:01.263Z,84.74
2023-04-16T02:18:01.300Z,84.74
2023-04-16T02:19:01.231Z,84.63
2023-04-16T02:20:01.288Z,84.63
2023-04-16T02:21:01.222Z,84.53
2023-04-16T02:22:01.192Z,84.53
2023-04-16T02:23:01.193Z,84.63
2023-04-16T02:24:01.161Z,84.67
2023-04-16T02:25:01.178Z,84.53
2023-04-16T02:26:01.233Z,84.56
2023-04-16T02:27:01.123Z,84.67
2023-04-16T02:28:01.112Z,84.56
2023-04-16T02:29:01.111Z,84.77
2023-04-16T02:30:01.101Z,84.77
2023-04-16T02:31:01.078Z,84.98
2023-04-16T02:32:01.153Z,84.98
2023-04-16T02:33:01.115Z,84.98
2023-04-16T02:34:01.074Z,85.08
2023-04-16T02:35:01.040Z,85.08
2023-04-16T02:36:01.041Z,85.08
2023-04-16T02:37:01.550Z,85.08
2023-04-16T02:38:01.912Z,85.08
2023-04-16T02:39:00.975Z,85.08
2023-04-16T02:40:01.095Z,85.08
2023-04-16T02:41:02.381Z,85.08
2023-04-16T02:42:02.362Z,85.08
2023-04-16T02:43:02.330Z,85.08
2023-04-16T02:44:00.917Z,85.18
2023-04-16T02:45:00.949Z,85.08
2023-04-16T02:46:00.945Z,85.08
2023-04-16T02:47:00.871Z,85.08
2023-04-16T02:48:00.906Z,84.98
2023-04-16T02:49:00.836Z,84.98
2023-04-16T02:50:00.836Z,84.98
2023-04-16T02:51:00.834Z,84.91
2023-04-16T02:52:00.796Z,84.88
2023-04-16T02:53:00.801Z,84.88
2023-04-16T02:54:00.770Z,84.88
2023-04-16T02:55:00.767Z,84.77
2023-04-16T02:56:00.743Z,84.77
2023-04-16T02:57:00.744Z,84.91
2023-04-16T02:58:00.733Z,84.91
2023-04-16T02:59:00.706Z,85.02
2023-04-16T03:00:00.708Z,85.02
2023-04-16T03:01:00.748Z,85.12
2023-04-16T03:02:00.694Z,85.12
2023-04-16T03:03:00.684Z,85.12
2023-04-16T03:04:00.734Z,85.02
2023-04-16T03:05:00.650Z,85.02
2023-04-16T03:06:00.621Z,84.91
2023-04-16T03:07:00.611Z,84.81
2023-04-16T03:08:00.581Z,84.81
2023-04-16T03:09:00.580Z,84.81
2023-04-16T03:10:00.563Z,84.81
2023-04-16T03:11:00.545Z,84.71
2023-04-16T03:12:00.543Z,84.71
2023-04-16T03:13:00.546Z,84.81
2023-04-16T03:14:00.542Z,84.91
2023-04-16T03:15:00.534Z,84.81
2023-04-16T03:16:00.518Z,84.71
2023-04-16T03:17:00.475Z,84.71
2023-04-16T03:18:00.533Z,84.71
2023-04-16T03:19:00.474Z,84.71
2023-04-16T03:20:00.483Z,84.71
2023-04-16T03:21:00.410Z,84.61
2023-04-16T03:22:00.455Z,84.71
2023-04-16T03:23:00.401Z,85.02
2023-04-16T03:24:00.387Z,84.91
2023-04-16T03:25:00.376Z,84.91
2023-04-16T03:26:00.361Z,85.12
2023-04-16T03:27:00.353Z,85.22
2023-04-16T03:28:00.336Z,85.53
2023-04-16T03:29:00.344Z,85.47
2023-04-16T03:30:00.299Z,85.26
2023-04-16T03:31:00.304Z,85.33
2023-04-16T03:32:00.279Z,85.47
2023-04-16T03:33:00.392Z,85.68
2023-04-16T03:34:00.229Z,85.68
2023-04-16T03:35:00.280Z,85.68
2023-04-16T03:36:00.210Z,85.78
2023-04-16T03:37:00.209Z,85.57
2023-04-16T03:38:00.201Z,85.47
2023-04-16T03:39:00.189Z,85.47
2023-04-16T03:40:00.172Z,85.36
2023-04-16T03:41:00.189Z,85.26
2023-04-16T03:42:00.128Z,85.16
2023-04-16T03:43:00.125Z,85.06
2023-04-16T03:44:00.147Z,85.16
2023-04-16T03:45:00.131Z,85.26
2023-04-16T03:46:00.186Z,85.26
2023-04-16T03:47:00.074Z,85.16
2023-04-16T03:48:00.050Z,85.06
2023-04-16T03:49:01.211Z,84.95
2023-04-16T03:50:00.040Z,84.95
2023-04-16T03:51:00.010Z,85.06
2023-04-16T03:52:00.000Z,85.06
2023-04-16T03:52:59.996Z,85.16
2023-04-16T03:53:59.978Z,85.06
2023-04-16T03:54:59.981Z,85.06
2023-04-16T03:55:59.948Z,85.06
2023-04-16T03:56:59.934Z,85.36
2023-04-16T03:57:59.929Z,85.36
2023-04-16T03:58:59.937Z,85.36
2023-04-16T03:59:59.896Z,85.36
2023-04-16T04:00:59.898Z,85.47
2023-04-16T04:01:59.930Z,85.36
2023-04-16T04:03:00.180Z,85.26
2023-04-16T04:04:00.036Z,85.36
2023-04-16T04:04:59.931Z,85.47
2023-04-16T04:05:59.842Z,85.47
2023-04-16T04:06:59.819Z,85.47
2023-04-16T04:07:59.798Z,85.36
2023-04-16T04:08:59.775Z,85.36
2023-04-16T04:09:59.776Z,85.47
2023-04-16T04:10:59.771Z,85.47
2023-04-16T04:11:59.746Z,85.47
2023-04-16T04:12:59.732Z,85.36
2023-04-16T04:13:59.728Z,85.36
2023-04-16T04:14:59.708Z,85.36
2023-04-16T04:15:59.794Z,85.26
2023-04-16T04:16:59.669Z,85.16
2023-04-16T04:17:59.721Z,85.26
2023-04-16T04:18:59.659Z,85.36
2023-04-16T04:20:01.447Z,85.41
2023-04-16T04:20:59.614Z,85.41
2023-04-16T04:21:59.597Z,85.41
2023-04-16T04:22:59.618Z,85.51
2023-04-16T04:23:59.584Z,85.51
2023-04-16T04:24:59.586Z,85.51
2023-04-16T04:25:59.616Z,85.51
2023-04-16T04:26:59.535Z,85.61
2023-04-16T04:27:59.544Z,85.61
2023-04-16T04:28:59.521Z,85.61
2023-04-16T04:29:59.507Z,85.82
2023-04-16T04:30:59.492Z,85.82
2023-04-16T04:31:59.557Z,85.71
2023-04-16T04:32:59.594Z,85.92
2023-04-16T04:33:59.465Z,85.82
2023-04-16T04:34:59.442Z,85.71
2023-04-16T04:35:59.425Z,85.82
2023-04-16T04:36:59.409Z,85.92
2023-04-16T04:37:59.384Z,85.92
2023-04-16T04:38:59.373Z,86.02
2023-04-16T04:39:59.414Z,85.82
2023-04-16T04:40:59.348Z,85.71
2023-04-16T04:41:59.349Z,85.61
2023-04-16T04:42:59.333Z,85.61
2023-04-16T04:43:59.319Z,85.61
2023-04-16T04:44:59.294Z,85.61
2023-04-16T04:45:59.330Z,85.71
2023-04-16T04:46:59.273Z,85.92
2023-04-16T04:47:59.383Z,85.92
2023-04-16T04:48:59.250Z,85.82
2023-04-16T04:49:59.235Z,85.82
2023-04-16T04:50:59.230Z,85.71
2023-04-16T04:51:59.216Z,85.61
2023-04-16T04:52:59.224Z,85.71
2023-04-16T04:53:59.177Z,85.82
2023-04-16T04:54:59.214Z,85.71
2023-04-16T04:56:09.156Z,86.02
2023-04-16T04:57:00.166Z,86.02
2023-04-16T04:57:59.118Z,86.02
2023-04-16T04:58:59.135Z,86.02
2023-04-16T04:59:59.094Z,85.92
2023-04-16T05:00:59.138Z,85.82
2023-04-16T05:01:59.111Z,85.92
2023-04-16T05:02:59.133Z,85.92
2023-04-16T05:03:59.128Z,86.02
2023-04-16T05:04:59.062Z,85.92
2023-04-16T05:05:59.079Z,85.82
2023-04-16T05:06:59.002Z,85.71
2023-04-16T05:07:59.017Z,85.71
2023-04-16T05:08:58.984Z,85.71
2023-04-16T05:09:59.012Z,85.71
2023-04-16T05:10:58.949Z,85.61
2023-04-16T05:11:58.933Z,85.71
2023-04-16T05:12:58.981Z,85.71
2023-04-16T05:13:58.917Z,85.82
2023-04-16T05:14:58.894Z,85.82
2023-04-16T05:15:58.905Z,85.71
2023-04-16T05:16:58.990Z,85.61
2023-04-16T05:17:58.914Z,85.75
2023-04-16T05:18:58.857Z,85.61
2023-04-16T05:19:58.836Z,85.61
2023-04-16T05:20:58.843Z,85.61
2023-04-16T05:21:58.804Z,85.61
2023-04-16T05:22:58.805Z,85.61
2023-04-16T05:23:58.788Z,85.61
2023-04-16T05:24:58.779Z,85.82
2023-04-16T05:25:58.779Z,85.82
2023-04-16T05:26:58.754Z,85.86
2023-04-16T05:27:58.749Z,85.82
2023-04-16T05:28:58.724Z,86.16
2023-04-16T05:29:58.710Z,86.06
2023-04-16T05:30:59.012Z,85.96
2023-04-16T05:31:58.677Z,85.96
2023-04-16T05:32:58.732Z,85.86
2023-04-16T05:33:58.699Z,85.96
2023-04-16T05:34:58.643Z,85.86
2023-04-16T05:35:58.637Z,85.86
2023-04-16T05:36:58.616Z,85.96
2023-04-16T05:37:58.614Z,85.96
2023-04-16T05:38:58.582Z,85.96
2023-04-16T05:39:58.598Z,85.86
2023-04-16T05:40:58.609Z,85.86
2023-04-16T05:41:58.546Z,85.96
2023-04-16T05:42:58.536Z,86.06
2023-04-16T05:43:58.516Z,86.37
2023-04-16T05:44:58.506Z,86.27
2023-04-16T05:45:58.569Z,86.27
2023-04-16T05:46:58.482Z,86.47
2023-04-16T05:47:58.517Z,86.47
2023-04-16T05:48:58.462Z,86.37
2023-04-16T05:49:58.435Z,86.27
2023-04-16T05:50:58.437Z,86.37
2023-04-16T05:51:58.401Z,86.27
2023-04-16T05:52:58.402Z,86.47
2023-04-16T05:53:58.412Z,86.47
2023-04-16T05:54:58.370Z,86.68
2023-04-16T05:55:58.394Z,86.85
2023-04-16T05:56:58.355Z,86.88
2023-04-16T05:57:58.354Z,86.79
2023-04-16T05:58:58.324Z,86.58
2023-04-16T05:59:58.330Z,86.58
2023-04-16T06:00:58.323Z,86.58
2023-04-16T06:01:58.366Z,86.68
2023-04-16T06:02:58.381Z,86.68
2023-04-16T06:03:58.373Z,86.79
2023-04-16T06:04:58.256Z,86.79
2023-04-16T06:05:58.361Z,86.88
2023-04-16T06:06:58.222Z,86.88
2023-04-16T06:07:58.215Z,86.88
2023-04-16T06:08:58.188Z,86.99
2023-04-16T06:09:58.186Z,86.79
2023-04-16T06:10:58.193Z,86.79
2023-04-16T06:11:58.155Z,86.79
2023-04-16T06:12:58.141Z,86.99
2023-04-16T06:13:58.134Z,87.09
2023-04-16T06:14:58.111Z,87.09
2023-04-16T06:15:58.834Z,87.19
2023-04-16T06:16:58.095Z,86.99
2023-04-16T06:18:00.260Z,86.99
2023-04-16T06:18:58.047Z,86.99
2023-04-16T06:19:58.055Z,86.99
2023-04-16T06:20:58.057Z,87.19
2023-04-16T06:21:58.037Z,87.19
2023-04-16T06:22:57.993Z,87.19
2023-04-16T06:23:57.994Z,86.99
2023-04-16T06:24:57.991Z,87.09
2023-04-16T06:25:57.985Z,87.09
2023-04-16T06:26:57.972Z,86.99
2023-04-16T06:27:57.935Z,86.88
2023-04-16T06:28:57.953Z,86.95
2023-04-16T06:29:57.936Z,86.99
2023-04-16T06:30:57.920Z,86.88
2023-04-16T06:31:57.904Z,86.99
2023-04-16T06:32:57.921Z,86.95
2023-04-16T06:33:57.862Z,86.99
2023-04-16T06:34:57.966Z,86.99
2023-04-16T06:35:57.836Z,87.09
2023-04-16T06:36:57.826Z,87.05
2023-04-16T06:37:57.811Z,87.09
2023-04-16T06:38:57.798Z,87.09
2023-04-16T06:39:57.768Z,87.15
2023-04-16T06:40:57.770Z,87.05
2023-04-16T06:41:57.761Z,87.05
2023-04-16T06:42:57.825Z,86.85
2023-04-16T06:43:57.723Z,86.79
2023-04-16T06:44:57.733Z,86.68
2023-04-16T06:45:57.707Z,86.64
2023-04-16T06:46:57.767Z,86.74
2023-04-16T06:47:57.773Z,86.95
2023-04-16T06:48:57.665Z,86.74
2023-04-16T06:49:57.655Z,86.54
2023-04-16T06:50:57.656Z,86.43
2023-04-16T06:51:57.627Z,86.33
2023-04-16T06:52:57.599Z,86.23
2023-04-16T06:53:57.599Z,86.23
2023-04-16T06:54:57.573Z,86.23
2023-04-16T06:55:57.588Z,86.02
2023-04-16T06:56:57.590Z,86.02
2023-04-16T06:57:57.559Z,86.13
2023-04-16T06:58:57.526Z,86.23
2023-04-16T06:59:57.785Z,86.23
2023-04-16T07:00:57.513Z,86.13
2023-04-16T07:01:57.642Z,86.13
2023-04-16T07:02:58.765Z,86.13
2023-04-16T07:03:57.554Z,86.13
2023-04-16T07:04:57.463Z,86.13
2023-04-16T07:05:57.451Z,86.33
2023-04-16T07:06:57.413Z,86.33
2023-04-16T07:07:57.405Z,86.23
2023-04-16T07:08:57.405Z,86.02
2023-04-16T07:09:57.381Z,86.02
2023-04-16T07:10:57.388Z,86.02
2023-04-16T07:11:57.355Z,86.02
2023-04-16T07:12:57.387Z,86.02
2023-04-16T07:13:57.329Z,86.02
2023-04-16T07:14:57.316Z,86.02
2023-04-16T07:15:57.322Z,86.02
2023-04-16T07:16:57.319Z,86.02
2023-04-16T07:17:57.421Z,86.02
2023-04-16T07:18:57.272Z,86.02
2023-04-16T07:19:57.243Z,86.02
2023-04-16T07:20:57.236Z,86.02
2023-04-16T07:21:57.229Z,86.13
2023-04-16T07:22:57.196Z,86.23
2023-04-16T07:23:57.190Z,86.13
2023-04-16T07:24:57.174Z,86.13
2023-04-16T07:25:57.176Z,86.23
2023-04-16T07:26:57.188Z,86.13
2023-04-16T07:27:57.143Z,86.13
2023-04-16T07:28:57.136Z,86.08
2023-04-16T07:29:57.128Z,86.13
2023-04-16T07:30:57.122Z,86.08
2023-04-16T07:31:57.124Z,86.08
2023-04-16T07:32:57.107Z,86.19
2023-04-16T07:33:57.063Z,86.19
2023-04-16T07:34:57.049Z,86.19
2023-04-16T07:35:57.052Z,86.19
2023-04-16T07:36:57.767Z,86.19
2023-04-16T07:37:57.034Z,86.29
2023-04-16T07:38:56.991Z,86.29
2023-04-16T07:39:57.416Z,86.29
2023-04-16T07:40:57.011Z,86.29
2023-04-16T07:41:56.970Z,86.29
2023-04-16T07:42:56.995Z,86.40
2023-04-16T07:43:56.932Z,86.40
2023-04-16T07:44:56.919Z,86.40
2023-04-16T07:45:56.942Z,86.50
2023-04-16T07:46:57.062Z,86.60
2023-04-16T07:47:56.942Z,86.70
2023-04-16T07:48:56.862Z,86.80
2023-04-16T07:49:57.571Z,86.87
2023-04-16T07:50:56.859Z,86.77
2023-04-16T07:51:56.823Z,86.77
2023-04-16T07:52:56.810Z,86.87
2023-04-16T07:53:56.800Z,86.97
2023-04-16T07:54:56.817Z,86.87
2023-04-16T07:55:56.787Z,86.87
2023-04-16T07:56:56.759Z,86.77
2023-04-16T07:57:56.737Z,86.66
2023-04-16T07:58:57.439Z,86.66
2023-04-16T07:59:56.718Z,86.66
2023-04-16T08:00:56.726Z,86.66
2023-04-16T08:01:56.704Z,86.87
2023-04-16T08:02:56.897Z,87.18
2023-04-16T08:03:56.821Z,87.24
2023-04-16T08:04:56.752Z,87.24
2023-04-16T08:05:56.657Z,87.24
2023-04-16T08:06:56.659Z,87.34
2023-04-16T08:07:56.623Z,87.34
2023-04-16T08:08:56.608Z,87.34
2023-04-16T08:09:56.635Z,87.34
2023-04-16T08:10:56.635Z,87.34
2023-04-16T08:11:56.567Z,87.34
2023-04-16T08:12:56.554Z,87.34
2023-04-16T08:13:56.534Z,87.34
2023-04-16T08:14:56.521Z,87.24
2023-04-16T08:15:56.584Z,87.24
2023-04-16T08:16:56.530Z,87.24
2023-04-16T08:17:56.519Z,87.24
2023-04-16T08:18:56.469Z,87.24
2023-04-16T08:19:56.468Z,87.24
2023-04-16T08:20:56.445Z,87.13
2023-04-16T08:21:56.444Z,87.04
2023-04-16T08:22:56.417Z,87.04
2023-04-16T08:23:56.409Z,87.04
2023-04-16T08:24:56.386Z,87.13
2023-04-16T08:25:56.374Z,87.13
2023-04-16T08:27:02.486Z,87.04
2023-04-16T08:27:57.349Z,87.04
2023-04-16T08:28:56.336Z,87.04
2023-04-16T08:29:56.327Z,86.93
2023-04-16T08:30:56.377Z,86.89
2023-04-16T08:31:56.361Z,86.93
2023-04-16T08:32:56.344Z,86.83
2023-04-16T08:33:56.297Z,86.83
2023-04-16T08:34:56.262Z,86.89
2023-04-16T08:35:56.251Z,86.79
2023-04-16T08:36:56.265Z,86.89
2023-04-16T08:37:56.340Z,86.83
2023-04-16T08:38:56.249Z,86.68
2023-04-16T08:39:56.217Z,86.68
2023-04-16T08:40:56.190Z,86.68
2023-04-16T08:41:56.202Z,86.68
2023-04-16T08:42:56.174Z,86.68
2023-04-16T08:43:56.170Z,86.58
2023-04-16T08:44:56.132Z,86.68
2023-04-16T08:45:56.131Z,86.58
2023-04-16T08:46:56.179Z,86.68
2023-04-16T08:47:56.162Z,86.58
2023-04-16T08:48:56.098Z,86.58
2023-04-16T08:49:58.321Z,86.58
2023-04-16T08:50:56.091Z,86.48
2023-04-16T08:51:56.114Z,86.48
2023-04-16T08:52:56.038Z,86.58
2023-04-16T08:53:56.042Z,86.58
2023-04-16T08:54:56.495Z,86.58
2023-04-16T08:55:55.997Z,86.58
2023-04-16T08:56:56.001Z,86.58
2023-04-16T08:57:55.971Z,86.58
2023-04-16T08:58:55.971Z,86.58
2023-04-16T08:59:55.958Z,86.68
2023-04-16T09:00:55.958Z,86.68
2023-04-16T09:01:56.008Z,86.68
2023-04-16T09:02:56.166Z,86.58
2023-04-16T09:03:56.047Z,86.48
2023-04-16T09:04:57.064Z,86.48
2023-04-16T09:05:55.877Z,86.48
2023-04-16T09:06:55.893Z,86.58
2023-04-16T09:07:55.858Z,86.58
2023-04-16T09:08:55.823Z,86.48
2023-04-16T09:09:55.810Z,86.38
2023-04-16T09:10:55.857Z,86.27
2023-04-16T09:11:55.797Z,86.27
2023-04-16T09:12:55.840Z,86.27
2023-04-16T09:13:55.768Z,86.27
2023-04-16T09:14:55.769Z,86.17
2023-04-16T09:15:55.778Z,86.17
2023-04-16T09:16:55.765Z,86.17
2023-04-16T09:17:55.747Z,86.17
2023-04-16T09:18:55.686Z,86.17
2023-04-16T09:19:55.690Z,86.17
2023-04-16T09:20:55.695Z,86.17
2023-04-16T09:21:55.657Z,86.27
2023-04-16T09:22:55.658Z,86.17
2023-04-16T09:23:55.654Z,86.27
2023-04-16T09:24:55.657Z,86.27
2023-04-16T09:25:55.660Z,86.38
2023-04-16T09:26:55.587Z,86.27
2023-04-16T09:27:55.586Z,86.38
2023-04-16T09:28:55.580Z,86.38
2023-04-16T09:29:55.538Z,86.38
2023-04-16T09:30:55.544Z,86.38
2023-04-16T09:31:55.550Z,86.27
2023-04-16T09:32:55.537Z,86.17
2023-04-16T09:33:55.501Z,86.27
2023-04-16T09:34:55.483Z,86.27
2023-04-16T09:35:55.505Z,86.27
2023-04-16T09:36:55.486Z,86.27
2023-04-16T09:37:55.448Z,86.27
2023-04-16T09:38:57.541Z,86.38
2023-04-16T09:39:55.823Z,86.38
2023-04-16T09:40:55.522Z,86.38
2023-04-16T09:41:55.501Z,86.33
2023-04-16T09:42:55.524Z,86.38
2023-04-16T09:43:55.352Z,86.44
2023-04-16T09:44:56.866Z,86.54
2023-04-16T09:45:55.365Z,86.44
2023-04-16T09:46:55.335Z,86.54
2023-04-16T09:47:55.324Z,86.44
2023-04-16T09:48:55.283Z,86.54
2023-04-16T09:49:55.274Z,86.33
2023-04-16T09:50:55.272Z,86.33
2023-04-16T09:51:55.260Z,86.33
2023-04-16T09:52:55.251Z,86.44
2023-04-16T09:53:55.237Z,86.54
2023-04-16T09:54:55.251Z,86.65
2023-04-16T09:55:55.233Z,86.65
2023-04-16T09:56:55.202Z,86.65
2023-04-16T09:57:55.180Z,86.75
2023-04-16T09:58:55.173Z,86.71
2023-04-16T09:59:55.154Z,86.71
2023-04-16T10:00:55.180Z,86.71
2023-04-16T10:02:12.294Z,86.71
2023-04-16T10:02:56.191Z,86.71
2023-04-16T10:03:55.329Z,86.71
2023-04-16T10:04:55.158Z,86.71
2023-04-16T10:05:55.077Z,86.71
2023-04-16T10:07:55.080Z,86.60
2023-04-16T10:08:55.057Z,86.60
2023-04-16T10:09:55.044Z,86.60
2023-04-16T10:10:55.056Z,86.60
2023-04-16T10:11:55.178Z,86.71
2023-04-16T10:12:55.139Z,86.71
2023-04-16T10:13:55.099Z,86.71
2023-04-16T10:14:54.997Z,86.71
2023-04-16T10:15:54.988Z,86.71
2023-04-16T10:16:55.035Z,86.50
2023-04-16T10:17:54.995Z,86.40
2023-04-16T10:18:54.944Z,86.40
2023-04-16T10:19:54.909Z,86.50
2023-04-16T10:20:54.903Z,86.81
2023-04-16T10:21:54.884Z,87.02
2023-04-16T10:22:54.879Z,87.32
2023-04-16T10:23:54.896Z,87.63
2023-04-16T10:24:54.907Z,87.84
2023-04-16T10:25:57.385Z,88.04
2023-04-16T10:26:54.839Z,88.21
2023-04-16T10:27:54.831Z,88.31
2023-04-16T10:28:54.818Z,88.31
2023-04-16T10:29:54.825Z,88.41
2023-04-16T10:30:54.871Z,88.51
2023-04-16T10:31:54.753Z,88.72
2023-04-16T10:32:54.819Z,88.72
2023-04-16T10:33:54.721Z,88.72
2023-04-16T10:34:54.709Z,88.68
2023-04-16T10:36:06.787Z,88.57
2023-04-16T10:36:55.688Z,88.47
2023-04-16T10:37:54.671Z,88.47
2023-04-16T10:38:54.695Z,88.47
2023-04-16T10:39:54.647Z,88.37
2023-04-16T10:40:54.620Z,88.27
2023-04-16T10:41:54.621Z,88.27
2023-04-16T10:42:54.611Z,88.27
2023-04-16T10:43:54.598Z,88.17
2023-04-16T10:44:54.585Z,88.12
2023-04-16T10:45:54.607Z,88.12
2023-04-16T10:46:54.563Z,88.12
2023-04-16T10:47:54.558Z,88.12
2023-04-16T10:48:54.533Z,88.02
2023-04-16T10:49:54.521Z,88.12
2023-04-16T10:50:54.496Z,88.12
2023-04-16T10:51:54.492Z,88.08
2023-04-16T10:52:54.518Z,88.08
2023-04-16T10:53:54.473Z,88.08
2023-04-16T10:54:54.441Z,87.98
2023-04-16T10:55:54.458Z,87.98
2023-04-16T10:56:54.433Z,87.98
2023-04-16T10:57:54.416Z,87.88
2023-04-16T10:58:54.384Z,87.88
2023-04-16T10:59:54.403Z,87.98
2023-04-16T11:00:54.365Z,87.88
2023-04-16T11:01:54.460Z,87.84
2023-04-16T11:02:54.520Z,87.84
2023-04-16T11:03:54.554Z,87.84
2023-04-16T11:04:54.399Z,87.84
2023-04-16T11:05:54.307Z,87.94
2023-04-16T11:06:54.334Z,87.73
2023-04-16T11:07:54.280Z,87.73
2023-04-16T11:08:55.375Z,87.84
2023-04-16T11:09:54.255Z,87.84
2023-04-16T11:10:54.247Z,87.84
2023-04-16T11:11:54.236Z,87.73
2023-04-16T11:12:54.212Z,87.70
2023-04-16T11:13:54.181Z,87.59
2023-04-16T11:14:54.177Z,87.63
2023-04-16T11:15:54.182Z,87.53
2023-04-16T11:16:54.169Z,87.43
2023-04-16T11:17:54.147Z,87.32
2023-04-16T11:18:56.693Z,87.22
2023-04-16T11:19:54.106Z,87.22
2023-04-16T11:20:54.096Z,87.22
2023-04-16T11:21:54.080Z,87.12
2023-04-16T11:22:54.072Z,87.02
2023-04-16T11:23:54.042Z,87.02
2023-04-16T11:24:54.029Z,86.91
2023-04-16T11:25:54.018Z,86.91
2023-04-16T11:26:54.037Z,86.91
2023-04-16T11:27:53.984Z,86.91
2023-04-16T11:28:53.989Z,86.91
2023-04-16T11:29:53.966Z,87.02
2023-04-16T11:30:53.957Z,86.91
2023-04-16T11:31:54.033Z,86.91
2023-04-16T11:32:53.981Z,86.88
2023-04-16T11:33:54.058Z,86.88
2023-04-16T11:34:53.910Z,86.88
2023-04-16T11:35:53.885Z,86.88
2023-04-16T11:36:53.887Z,86.88
2023-04-16T11:37:53.858Z,86.88
2023-04-16T11:38:53.850Z,86.88
2023-04-16T11:39:53.833Z,86.88
2023-04-16T11:40:53.828Z,86.88
2023-04-16T11:41:53.819Z,86.88
2023-04-16T11:42:53.815Z,86.98
2023-04-16T11:43:53.795Z,86.98
2023-04-16T11:44:53.794Z,87.04
2023-04-16T11:45:53.769Z,87.04
2023-04-16T11:46:53.816Z,87.14
2023-04-16T11:47:53.765Z,87.14
2023-04-16T11:48:53.721Z,87.14
2023-04-16T11:49:53.696Z,87.14
2023-04-16T11:50:53.693Z,87.14
2023-04-16T11:51:53.691Z,87.14
2023-04-16T11:52:53.678Z,87.04
2023-04-16T11:53:53.652Z,87.04
2023-04-16T11:54:53.652Z,87.04
2023-04-16T11:55:53.621Z,87.00
2023-04-16T11:56:53.690Z,87.10
2023-04-16T11:57:53.591Z,87.10
2023-04-16T11:58:53.624Z,87.20
2023-04-16T12:00:02.186Z,87.20
2023-04-16T12:00:54.565Z,87.16
2023-04-16T12:01:53.626Z,87.26
2023-04-16T12:02:54.056Z,87.26
2023-04-16T12:03:53.771Z,87.26
2023-04-16T12:04:53.579Z,87.26
2023-04-16T12:05:53.484Z,87.32
2023-04-16T12:06:53.495Z,87.23
2023-04-16T12:07:53.470Z,87.32
2023-04-16T12:08:53.458Z,87.43
2023-04-16T12:09:53.440Z,87.38
2023-04-16T12:10:53.420Z,87.38
2023-04-16T12:11:53.418Z,87.38
2023-04-16T12:12:53.406Z,87.14
2023-04-16T12:13:53.375Z,87.14
2023-04-16T12:14:53.373Z,87.24
2023-04-16T12:15:53.354Z,87.04
2023-04-16T12:16:53.438Z,86.94
2023-04-16T12:17:53.342Z,86.83
2023-04-16T12:18:53.320Z,86.80
2023-04-16T12:19:53.292Z,86.80
2023-04-16T12:20:53.361Z,86.90
2023-04-16T12:21:53.424Z,86.90
2023-04-16T12:22:53.264Z,86.86
2023-04-16T12:23:53.244Z,86.86
2023-04-16T12:24:53.258Z,86.76
2023-04-16T12:25:53.224Z,86.71
2023-04-16T12:26:53.213Z,86.82
2023-04-16T12:27:54.028Z,86.82
2023-04-16T12:28:53.188Z,86.68
2023-04-16T12:29:53.158Z,86.68
2023-04-16T12:30:53.234Z,86.68
2023-04-16T12:31:53.165Z,86.77
2023-04-16T12:32:53.216Z,86.74
2023-04-16T12:33:53.116Z,86.74
2023-04-16T12:34:53.109Z,86.63
2023-04-16T12:35:53.105Z,86.69
2023-04-16T12:36:53.084Z,86.69
2023-04-16T12:37:53.058Z,86.80
2023-04-16T12:38:53.053Z,86.76
2023-04-16T12:39:53.040Z,86.76
2023-04-16T12:40:53.025Z,86.61
2023-04-16T12:41:53.006Z,86.51
2023-04-16T12:42:52.995Z,86.41
2023-04-16T12:43:52.979Z,86.21
2023-04-16T12:44:52.980Z,86.07
2023-04-16T12:45:53.105Z,85.96
2023-04-16T12:46:52.970Z,85.66
2023-04-16T12:47:52.951Z,85.55
2023-04-16T12:48:52.973Z,85.35
2023-04-16T12:49:52.953Z,85.15
2023-04-16T12:50:52.894Z,84.84
2023-04-16T12:51:52.902Z,84.74
2023-04-16T12:52:52.863Z,84.64